KMRC/MRC METAR and TAF weather

Enter ICAO airport designator
Station Type Date Time Source
KMRC METAR 2023/02/05 14:55 UTC NOAA

KMRC 051455Z AUTO 21012KT 10SM CLR 09/01 A3022 RMK A01


Station Type Date Time Source
KMRC Decoded METAR 2023/02/05 14:55 UTC NOAA

Columbia / Maury County, TN, United States (KMRC) 35-33N 087-11W
Feb 05, 2023 - 09:55 AM EST / 2023.02.05 1455 UTC
Wind: from the SSW (210 degrees) at 14 MPH (12 KT):0
Visibility: 10 mile(s):0
Sky conditions: clear
Temperature: 48 F (9 C)
Dew Point: 33 F (1 C)
Relative Humidity: 57%
Pressure (altimeter): 30.22 in. Hg (1023 hPa)
ob: KMRC 051455Z AUTO 21012KT 10SM CLR 09/01 A3022 RMK A01
cycle: 15

Station Type Date Time Source
KMRC TAF 2009/08/31 19:45 UTC NOAA

METAR KMRC 311945Z AUTO 06008KT 10SM CLR 26/12 A3010
RMK AO1 T02550116 $

Example: see airport list